Time;durP1;ratioP1;P1;durP2;ratioP2;P2;SDS_P1;SDS_P2;PMS_P1;PMS_P2;Temp;Humidity;BMP_temperature;BMP_pressure;BME280_temperature;BME280_humidity;BME280_pressure;Samples;Min_cycle;Max_cycle;Signal;HPM_P1;HPM_P2
2022/06/08 00:00:18;;;;;;;5.62;3.77;;;;;;;;;;359286;145;864869;-57
2022/06/08 00:13:23;;;;;;;5.52;3.51;;;;;;;18.49;54.68;99658.88;369364;142;880283;-56
2022/06/08 00:14:25;;;;;;;5.43;3.82;;;;;;;18.35;54.85;99658.66;365466;144;858896;-57
2022/06/08 00:15:48;;;;;;;6.33;3.59;;;;;;;18.30;55.03;99665.87;360994;145;857281;-55
2022/06/08 00:16:51;;;;;;;5.71;3.58;;;;;;;18.25;55.16;99660.83;363198;145;864718;-56
2022/06/08 00:17:53;;;;;;;6.89;3.71;;;;;;;18.19;55.35;99659.34;360068;145;857294;-55
2022/06/08 00:18:55;;;;;;;4.31;3.43;;;;;;;18.17;55.41;99662.94;360306;145;857971;-56
2022/06/08 00:19:56;;;;;;;5.03;3.59;;;;;;;18.16;55.50;99663.86;360803;145;857917;-54
2022/06/08 00:20:58;;;;;;;5.60;3.42;;;;;;;18.15;55.50;99662.16;358079;147;857395;-56
2022/06/08 00:22:00;;;;;;;5.69;3.58;;;;;;;18.15;55.46;99665.64;356814;147;866610;-57
2022/06/08 00:23:03;;;;;;;3.33;2.95;;;;;;;18.13;55.55;99662.23;357821;147;859534;-59
2022/06/08 00:24:05;;;;;;;4.51;3.39;;;;;;;18.11;55.74;99664.08;355082;149;858512;-55
2022/06/08 00:25:08;;;;;;;5.29;3.28;;;;;;;18.10;55.56;99663.20;357994;147;857756;-57
2022/06/08 00:26:10;;;;;;;5.18;3.44;;;;;;;18.07;55.64;99665.13;356853;149;857408;-56
2022/06/08 00:27:12;;;;;;;7.85;3.17;;;;;;;18.04;55.65;99657.41;357406;147;857841;-55
2022/06/08 00:28:14;;;;;;;5.75;3.51;;;;;;;17.99;55.83;99662.80;356216;147;858885;-57
2022/06/08 00:29:16;;;;;;;6.84;3.03;;;;;;;17.95;55.86;99656.82;357225;147;857375;-55
2022/06/08 00:30:18;;;;;;;5.55;3.37;;;;;;;17.94;56.05;99656.91;358502;147;857408;-54
2022/06/08 00:31:21;;;;;;;7.32;3.19;;;;;;;17.92;55.99;99654.34;355149;141;856360;-55
2022/06/08 00:32:23;;;;;;;5.64;3.22;;;;;;;17.92;55.99;99654.34;343038;150;857876;-55
2022/06/08 00:33:25;;;;;;;7.31;3.56;;;;;;;17.99;56.03;99661.92;341683;153;857275;-55
2022/06/08 00:34:27;;;;;;;4.93;3.23;;;;;;;17.97;55.79;99654.16;341866;153;858018;-56
2022/06/08 00:35:29;;;;;;;7.95;3.47;;;;;;;17.92;55.90;99656.13;344618;153;857296;-55
2022/06/08 00:36:32;;;;;;;5.10;3.51;;;;;;;17.88;55.96;99657.17;342846;153;857341;-56
2022/06/08 00:37:34;;;;;;;5.22;3.50;;;;;;;17.84;56.11;99656.44;345142;154;857676;-55
2022/06/08 00:38:36;;;;;;;7.50;3.67;;;;;;;17.80;56.16;99655.73;343592;153;858806;-56
2022/06/08 00:39:38;;;;;;;5.14;2.91;;;;;;;17.79;56.36;99650.55;344210;154;857755;-57
2022/06/08 00:41:00;;;;;;;5.21;3.23;;;;;;;17.76;56.24;99655.91;339205;154;857419;-56
2022/06/08 00:42:04;;;;;;;5.27;3.07;;;;;;;17.76;56.44;99658.53;332040;159;857477;-56
2022/06/08 00:43:06;;;;;;;7.62;3.35;;;;;;;17.75;56.35;99651.59;339257;156;859567;-54
2022/06/08 00:44:14;;;;;;;5.29;3.01;;;;;;;17.72;56.44;99647.36;336743;156;857886;-56
2022/06/08 00:45:19;;;;;;;5.99;2.73;;;;;;;17.69;56.39;99652.72;334489;156;865709;-55
2022/06/08 00:46:22;;;;;;;5.79;3.43;;;;;;;17.64;56.55;99652.06;337150;156;856425;-55
2022/06/08 00:47:30;;;;;;;5.77;3.33;;;;;;;17.61;56.58;99650.41;338003;156;860617;-55
2022/06/08 00:48:35;;;;;;;5.48;3.21;;;;;;;17.61;56.58;99646.95;336457;156;857293;-56
2022/06/08 00:49:43;;;;;;;7.74;3.51;;;;;;;17.61;56.79;99657.43;335447;156;857676;-56
2022/06/08 00:50:48;;;;;;;5.64;3.23;;;;;;;17.60;56.60;99651.33;336341;156;857361;-56
2022/06/08 00:51:49;;;;;;;5.75;3.04;;;;;;;17.59;56.63;99651.41;337003;156;857297;-56
2022/06/08 00:52:52;;;;;;;6.58;3.59;;;;;;;17.55;56.67;99650.67;337321;156;857328;-55
2022/06/08 00:53:57;;;;;;;5.03;3.32;;;;;;;17.51;56.71;99649.96;336928;156;857727;-54
2022/06/08 00:55:02;;;;;;;6.43;2.84;;;;;;;17.49;56.88;99648.30;335534;156;857302;-56
2022/06/08 00:56:06;;;;;;;5.96;3.16;;;;;;;17.44;56.92;99645.86;336013;156;857313;-56
2022/06/08 00:57:20;;;;;;;4.31;3.13;;;;;;;17.40;57.19;99648.69;336174;156;864958;-55
2022/06/08 00:58:25;;;;;;;7.57;3.41;;;;;;;17.35;57.29;99641.88;335974;156;856624;-55
2022/06/08 00:59:27;;;;;;;5.22;3.25;;;;;;;17.30;57.39;99646.45;337133;157;857303;-55
2022/06/08 01:00:32;;;;;;;3.93;2.85;;;;;;;17.27;57.51;99649.19;336025;156;864855;-56
2022/06/08 01:01:34;;;;;;;7.62;3.12;;;;;;;17.23;57.61;99640.59;336087;156;865456;-56
2022/06/08 01:02:36;;;;;;;4.03;3.14;;;;;;;17.22;57.62;99646.75;335223;156;858258;-56
2022/06/08 01:03:38;;;;;;;4.29;2.89;;;;;;;17.21;57.60;99649.44;336223;156;857354;-55
2022/06/08 01:04:40;;;;;;;5.28;3.17;;;;;;;17.19;57.72;99640.80;332174;159;859939;-56
2022/06/08 01:05:46;;;;;;;4.50;2.99;;;;;;;17.19;57.68;99639.02;330345;159;857310;-55
2022/06/08 01:06:52;;;;;;;5.46;3.15;;;;;;;17.19;57.68;99639.02;336740;156;859296;-57
2022/06/08 01:07:56;;;;;;;4.73;3.19;;;;;;;17.12;57.65;99634.11;338147;156;860190;-56
2022/06/08 01:08:58;;;;;;;4.66;2.89;;;;;;;17.11;57.75;99645.49;337102;156;858970;-56
2022/06/08 01:10:00;;;;;;;5.07;3.25;;;;;;;17.05;57.83;99647.44;337472;156;857313;-56
2022/06/08 01:11:07;;;;;;;6.37;3.49;;;;;;;17.01;57.88;99640.63;337112;156;857831;-55
2022/06/08 01:12:17;;;;;;;6.04;3.17;;;;;;;16.99;58.07;99641.59;336726;156;859650;-54
2022/06/08 01:13:20;;;;;;;;;;;;;;;16.99;58.05;99646.81;339411;156;858829;-55
2022/06/08 01:14:22;;;;;;;3.86;2.71;;;;;;;16.98;58.21;99640.75;336216;156;857614;-54
2022/06/08 01:15:26;;;;;;;7.03;2.80;;;;;;;16.99;58.03;99646.81;340053;156;858619;-55
2022/06/08 01:16:28;;;;;;;5.09;2.99;;;;;;;16.97;58.04;99645.99;338084;156;857279;-55
2022/06/08 01:17:30;;;;;;;5.17;2.92;;;;;;;16.96;58.12;99645.13;330784;159;857480;-57
2022/06/08 01:18:32;;;;;;;3.18;2.87;;;;;;;16.93;58.10;99645.25;330778;159;858371;-55
2022/06/08 01:19:35;;;;;;;6.30;2.89;;;;;;;16.91;58.24;99647.07;335447;156;857713;-55
2022/06/08 01:20:46;;;;;;;3.33;2.84;;;;;;;16.89;58.27;99638.44;337075;156;857391;-55
2022/06/08 01:21:54;;;;;;;;;;;;;;;16.91;58.13;99644.45;334906;158;856755;-55
2022/06/08 01:22:56;;;;;;;6.67;2.62;;;;;;;16.92;58.08;99641.80;336155;156;857433;-56
2022/06/08 01:24:00;;;;;;;6.19;3.41;;;;;;;16.93;58.05;99637.41;336469;156;856611;-57
2022/06/08 01:25:02;;;;;;;3.49;2.86;;;;;;;16.91;58.15;99647.07;336213;157;864778;-57
2022/06/08 01:26:19;;;;;;;6.42;2.91;;;;;;;16.92;58.19;99641.80;337658;156;864871;-56
2022/06/08 01:27:28;;;;;;;4.02;2.71;;;;;;;16.92;58.19;99648.77;321567;164;856542;-57
2022/06/08 01:28:36;;;;;;;6.02;2.90;;;;;;;16.90;58.09;99640.14;336732;156;857216;-60
2022/06/08 01:29:41;;;;;;;6.51;2.76;;;;;;;16.90;58.15;99646.23;335461;156;857289;-56
2022/06/08 01:30:56;;;;;;;4.26;2.87;;;;;;;16.89;58.11;99644.53;334985;156;858730;-56
2022/06/08 01:32:23;;;;;;;5.01;2.57;;;;;;;16.86;58.03;99652.50;336144;156;857213;-56
2022/06/08 01:33:32;;;;;;;5.12;2.84;;;;;;;16.82;58.15;99642.20;338359;156;857409;-55
2022/06/08 01:34:37;;;;;;;3.84;2.74;;;;;;;16.77;58.27;99650.23;336070;156;857227;-56
2022/06/08 01:35:46;;;;;;;5.27;2.94;;;;;;;16.74;58.46;99655.58;336948;156;858426;-54
2022/06/08 01:37:16;;;;;;;3.82;2.71;;;;;;;16.71;58.55;99653.92;335925;156;858995;-53
2022/06/08 01:38:41;;;;;;;3.46;2.84;;;;;;;16.70;58.79;99651.38;337618;156;858635;-54
2022/06/08 01:39:50;;;;;;;4.09;2.74;;;;;;;16.68;58.65;99638.36;335597;156;859293;-56
2022/06/08 01:41:18;;;;;;;4.76;2.94;;;;;;;16.67;58.67;99641.88;335163;156;857381;-55
2022/06/08 01:42:24;;;;;;;3.67;2.48;;;;;;;16.68;58.67;99651.42;335389;156;858484;-55
2022/06/08 01:43:48;;;;;;;5.54;2.76;;;;;;;16.71;58.60;99642.63;336459;156;857303;-54
2022/06/08 01:46:27;;;;;;;8.48;2.93;;;;;;;16.69;58.41;99641.84;336610;157;857738;-55
2022/06/08 01:47:33;;;;;;;4.71;2.89;;;;;;;16.69;58.57;99644.45;337560;156;858912;-55
2022/06/08 01:48:47;;;;;;;4.34;3.03;;;;;;;16.67;58.57;99641.05;338972;156;857330;-55
2022/06/08 01:49:56;;;;;;;6.49;2.61;;;;;;;16.67;58.58;99636.66;337393;156;859624;-57
2022/06/08 01:51:18;;;;;;;4.30;2.48;;;;;;;16.67;58.56;99641.88;337684;156;858188;-56
2022/06/08 01:52:24;;;;;;;7.79;3.12;;;;;;;16.68;58.62;99642.75;336704;156;857380;-56
2022/06/08 01:53:38;;;;;;;4.73;2.66;;;;;;;16.68;58.67;99640.13;336729;156;857280;-56
2022/06/08 01:54:44;;;;;;;3.87;2.89;;;;;;;16.69;58.69;99642.67;337982;156;858782;-56
2022/06/08 01:55:52;;;;;;;4.07;2.47;;;;;;;16.68;58.70;99643.59;337258;156;857301;-55
2022/06/08 01:57:16;;;;;;;4.42;2.56;;;;;;;16.69;58.65;99641.84;336190;156;857303;-56
2022/06/08 01:58:27;;;;;;;4.77;2.48;;;;;;;16.67;58.68;99644.49;337533;156;859693;-55
2022/06/08 01:59:42;;;;;;;3.31;2.77;;;;;;;16.67;58.78;99649.72;336006;156;858211;-56
2022/06/08 02:00:54;;;;;;;4.54;2.56;;;;;;;16.67;58.80;99643.66;337875;156;859359;-57
2022/06/08 02:02:00;;;;;;;4.85;2.67;;;;;;;16.64;58.86;99647.23;335857;156;857452;-58
2022/06/08 02:03:34;;;;;;;4.13;2.81;;;;;;;16.60;58.96;99641.28;336259;156;857298;-57
2022/06/08 02:04:45;;;;;;;5.34;2.94;;;;;;;16.60;58.95;99643.89;337006;156;857392;-56
2022/06/08 02:05:57;;;;;;;8.24;3.02;;;;;;;16.58;59.18;99639.62;336536;156;857320;-56
2022/06/08 02:07:12;;;;;;;4.78;2.45;;;;;;;16.57;59.20;99648.37;334768;156;859429;-56
2022/06/08 02:08:36;;;;;;;4.72;2.63;;;;;;;16.55;59.39;99651.05;335935;157;858189;-56
2022/06/08 02:09:56;;;;;;;5.85;2.99;;;;;;;16.58;59.40;99642.23;338919;156;858966;-56
2022/06/08 02:11:02;;;;;;;;;;;;;;;16.61;59.22;99645.59;339413;156;856648;-56
2022/06/08 02:12:07;;;;;;;3.98;2.67;;;;;;;16.66;59.24;99653.25;337134;156;857404;-55
2022/06/08 02:13:18;;;;;;;6.04;3.25;;;;;;;16.67;59.12;99643.66;335840;157;857867;-55
2022/06/08 02:14:26;;;;;;;4.43;2.78;;;;;;;16.67;59.12;99643.66;334791;156;858130;-57
2022/06/08 02:15:36;;;;;;;5.81;2.69;;;;;;;16.65;59.27;99651.55;337872;156;857443;-57
2022/06/08 02:16:42;;;;;;;4.96;2.86;;;;;;;16.64;59.53;99650.70;333842;156;857314;-56
2022/06/08 02:17:53;;;;;;;4.52;2.64;;;;;;;16.67;59.51;99654.12;336679;156;857452;-57
2022/06/08 02:19:14;;;;;;;11.23;3.07;;;;;;;16.70;59.58;99654.00;335964;157;857768;-54
2022/06/08 02:20:37;;;;;;;6.93;2.76;;;;;;;16.70;59.51;99654.83;329832;159;857672;-57
2022/06/08 02:21:52;;;;;;;6.53;2.63;;;;;;;16.71;59.51;99651.31;336398;156;858895;-55
2022/06/08 02:22:57;;;;;;;3.48;2.31;;;;;;;16.74;59.71;99655.58;336012;156;858590;-55
2022/06/08 02:24:02;;;;;;;6.60;2.61;;;;;;;16.75;59.57;99654.67;334825;156;858581;-55
2022/06/08 02:25:20;;;;;;;5.42;2.69;;;;;;;16.76;59.64;99653.77;335186;156;857319;-55
2022/06/08 02:26:30;;;;;;;6.16;2.58;;;;;;;16.77;59.63;99660.70;336368;156;857407;-55
2022/06/08 02:27:50;;;;;;;5.16;2.43;;;;;;;16.73;59.61;99654.72;336024;157;857258;-55
2022/06/08 02:28:56;;;;;;;5.41;2.87;;;;;;;;;;336126;156;857923;-58
2022/06/08 02:29:59;;;;;;;4.49;2.40;;;;;;;;;;327972;159;859362;-55
2022/06/08 02:31:06;;;;;;;4.29;2.67;;;;;;;;;;335337;156;859054;-58
2022/06/08 02:34:47;;;;;;;6.93;2.64;;;;;;;;;;332444;158;858302;-55
2022/06/08 02:35:49;;;;;;;4.32;2.41;;;;;;;;;;334059;158;857788;-55
2022/06/08 02:36:52;;;;;;;4.99;2.56;;;;;;;;;;332010;158;866678;-54
2022/06/08 02:37:54;;;;;;;3.31;2.51;;;;;;;;;;335342;158;857247;-56
2022/06/08 02:39:05;;;;;;;4.55;2.50;;;;;;;;;;333919;158;864743;-57
2022/06/08 02:40:11;;;;;;;4.94;2.52;;;;;;;;;;334392;158;866495;-57
2022/06/08 02:41:14;;;;;;;4.66;2.37;;;;;;;;;;331151;158;859119;-56
2022/06/08 02:42:24;;;;;;;8.07;2.66;;;;;;;;;;333784;158;856645;-55
2022/06/08 02:43:27;;;;;;;3.36;2.58;;;;;;;;;;333497;158;857749;-57
2022/06/08 02:44:30;;;;;;;3.91;2.66;;;;;;;;;;330998;158;857851;-58
2022/06/08 02:45:32;;;;;;;4.97;2.69;;;;;;;;;;326150;161;857303;-56
2022/06/08 02:46:42;;;;;;;6.57;2.54;;;;;;;;;;319931;164;857281;-54
2022/06/08 02:47:44;;;;;;;3.71;2.59;;;;;;;;;;321242;164;864830;-56
2022/06/08 02:48:46;;;;;;;4.93;2.60;;;;;;;;;;324528;162;858692;-56
2022/06/08 02:49:48;;;;;;;4.24;2.93;;;;;;;;;;324620;162;857786;-56
2022/06/08 02:50:50;;;;;;;4.71;2.46;;;;;;;;;;333683;158;857379;-56
2022/06/08 02:51:54;;;;;;;6.75;2.75;;;;;;;;;;330737;158;859751;-56
2022/06/08 02:53:03;;;;;;;3.01;2.44;;;;;;;;;;332223;158;864659;-55
2022/06/08 02:54:06;;;;;;;2.79;2.47;;;;;;;;;;326425;162;857170;-56
2022/06/08 02:55:22;;;;;;;3.59;2.61;;;;;;;;;;332234;158;857294;-57
2022/06/08 02:56:26;;;;;;;4.52;2.53;;;;;;;;;;331878;158;857843;-55
2022/06/08 02:57:30;;;;;;;3.18;2.34;;;;;;;;;;325842;161;857263;-56
2022/06/08 02:58:34;;;;;;;3.16;2.72;;;;;;;;;;324731;161;857266;-55
2022/06/08 02:59:49;;;;;;;3.41;2.52;;;;;;;;;;322900;164;866004;-56
2022/06/08 03:00:53;;;;;;;3.88;2.70;;;;;;;;;;322626;163;857965;-56
2022/06/08 03:01:56;;;;;;;4.21;2.84;;;;;;;;;;324198;163;859979;-57
2022/06/08 03:03:05;;;;;;;4.86;2.49;;;;;;;;;;322368;163;861902;-56
2022/06/08 03:04:11;;;;;;;4.65;2.96;;;;;;;;;;330650;158;857464;-56
2022/06/08 03:05:15;;;;;;;3.24;2.51;;;;;;;;;;329725;158;857294;-53
2022/06/08 03:06:21;;;;;;;6.45;2.51;;;;;;;;;;333449;158;856720;-55
2022/06/08 03:07:25;;;;;;;5.98;2.72;;;;;;;;;;332859;158;857442;-58
2022/06/08 03:08:27;;;;;;;4.67;2.78;;;;;;;;;;333718;158;857316;-55
2022/06/08 03:09:30;;;;;;;3.16;2.49;;;;;;;;;;332672;158;866123;-56
2022/06/08 03:10:32;;;;;;;4.26;2.65;;;;;;;;;;332752;158;856364;-56
2022/06/08 03:11:36;;;;;;;3.23;2.57;;;;;;;;;;333130;158;858142;-56
2022/06/08 03:12:39;;;;;;;5.12;2.54;;;;;;;;;;332724;158;865921;-55
2022/06/08 03:13:45;;;;;;;3.76;2.73;;;;;;;;;;331727;158;858782;-56
2022/06/08 03:14:48;;;;;;;4.49;2.43;;;;;;;;;;331420;158;857973;-55
2022/06/08 03:15:57;;;;;;;3.43;2.69;;;;;;;;;;332594;158;857308;-55
2022/06/08 03:16:59;;;;;;;6.28;2.88;;;;;;;;;;332535;158;858282;-57
2022/06/08 03:18:01;;;;;;;3.14;2.66;;;;;;;;;;334104;158;859859;-56
2022/06/08 03:19:03;;;;;;;5.18;2.59;;;;;;;;;;332540;158;866482;-57
2022/06/08 03:20:06;;;;;;;3.13;2.75;;;;;;;;;;334038;158;865482;-56
2022/06/08 03:21:08;;;;;;;6.13;2.76;;;;;;;;;;331606;158;857851;-55
2022/06/08 03:22:10;;;;;;;6.83;2.75;;;;;;;;;;332275;158;857104;-56
2022/06/08 03:23:12;;;;;;;3.52;2.40;;;;;;;;;;332334;158;857111;-57
2022/06/08 03:24:13;;;;;;;3.50;2.65;;;;;;;;;;331466;158;856709;-57
2022/06/08 03:25:15;;;;;;;2.84;2.29;;;;;;;;;;331964;158;856493;-56
2022/06/08 03:26:17;;;;;;;6.75;3.25;;;;;;;;;;331550;158;856432;-56
2022/06/08 03:27:20;;;;;;;3.99;2.82;;;;;;;;;;332055;158;856517;-57
2022/06/08 03:28:21;;;;;;;3.73;2.64;;;;;;;;;;332806;158;856412;-57
2022/06/08 03:29:23;;;;;;;6.65;2.89;;;;;;;;;;331187;158;856408;-59
2022/06/08 03:30:25;;;;;;;3.83;2.95;;;;;;;;;;330617;158;856259;-57
2022/06/08 03:31:27;;;;;;;5.19;2.76;;;;;;;;;;331103;158;856312;-57
2022/06/08 03:32:29;;;;;;;4.96;2.78;;;;;;;;;;331802;158;856503;-55
2022/06/08 03:33:30;;;;;;;4.89;2.53;;;;;;;;;;330633;158;857010;-57
2022/06/08 03:34:32;;;;;;;3.14;2.47;;;;;;;;;;334677;158;863567;-57
2022/06/08 03:35:33;;;;;;;3.73;2.44;;;;;;;;;;323997;163;856172;-57
2022/06/08 03:36:35;;;;;;;5.85;2.61;;;;;;;;;;325927;162;856193;-57
2022/06/08 03:37:37;;;;;;;3.69;2.44;;;;;;;;;;326086;161;864072;-58
2022/06/08 03:38:38;;;;;;;6.11;2.66;;;;;;;;;;325337;161;864093;-56
2022/06/08 03:39:40;;;;;;;4.96;2.69;;;;;;;;;;326691;161;856392;-57
2022/06/08 03:40:41;;;;;;;3.57;2.46;;;;;;;;;;326192;161;856342;-56
2022/06/08 03:41:47;;;;;;;4.04;2.29;;;;;;;;;;325810;162;856962;-55
2022/06/08 03:42:47;;;;;;;3.62;2.64;;;;;;;;;;325359;161;856547;-56
2022/06/08 03:43:48;;;;;;;5.99;2.29;;;;;;;;;;326394;161;856235;-57
2022/06/08 03:44:50;;;;;;;7.78;2.14;;;;;;;;;;324823;162;858301;-57
2022/06/08 03:45:52;;;;;;;4.25;2.50;;;;;;;;;;324331;161;864120;-56
2022/06/08 03:46:55;;;;;;;3.87;2.33;;;;;;;;;;326085;161;856310;-57
2022/06/08 03:47:56;;;;;;;3.15;2.13;;;;;;;;;;325766;161;856334;-56
2022/06/08 03:48:58;;;;;;;4.34;2.31;;;;;;;;;;326095;161;856341;-57
2022/06/08 03:50:00;;;;;;;3.05;2.26;;;;;;;;;;326012;161;856328;-55
2022/06/08 03:51:01;;;;;;;5.65;2.61;;;;;;;;;;326579;161;856230;-57
2022/06/08 03:52:04;;;;;;;3.98;2.19;;;;;;;;;;326702;161;856203;-57
2022/06/08 03:53:07;;;;;;;4.79;2.43;;;;;;;;;;326711;161;864801;-56
2022/06/08 03:54:10;;;;;;;4.42;2.32;;;;;;;;;;325265;162;865674;-53
2022/06/08 03:55:11;;;;;;;7.33;1.93;;;;;;;;;;324498;161;857465;-56
2022/06/08 03:56:15;;;;;;;3.97;2.24;;;;;;;;;;323899;162;865026;-59
2022/06/08 03:57:19;;;;;;;4.37;2.25;;;;;;;;;;326712;161;858936;-57
2022/06/08 03:58:20;;;;;;;8.86;2.76;;;;;;;;;;318239;164;857391;-57
2022/06/08 03:59:22;;;;;;;9.42;2.08;;;;;;;;;;326343;161;858195;-57
2022/06/08 04:00:25;;;;;;;7.21;1.88;;;;;;;;;;327078;160;864584;-57
2022/06/08 04:01:27;;;;;;;4.91;2.83;;;;;;;;;;334063;158;859763;-56
2022/06/08 04:02:29;;;;;;;4.73;2.16;;;;;;;;;;321769;163;857306;-56
2022/06/08 04:03:30;;;;;;;2.76;1.94;;;;;;;;;;324656;162;865585;-55
2022/06/08 04:04:33;;;;;;;6.21;2.64;;;;;;;;;;321214;163;864806;-55
2022/06/08 04:05:35;;;;;;;3.31;2.01;;;;;;;;;;323711;163;865673;-55
2022/06/08 04:06:37;;;;;;;4.53;2.35;;;;;;;;;;323049;163;857421;-54
2022/06/08 04:07:39;;;;;;;3.99;2.34;;;;;;;;;;325262;163;857363;-56
2022/06/08 04:08:40;;;;;;;3.89;2.39;;;;;;;;;;325504;163;864838;-56
2022/06/08 04:09:42;;;;;;;3.28;2.11;;;;;;;;;;323316;163;860269;-55
2022/06/08 04:10:44;;;;;;;3.53;2.06;;;;;;;;;;322427;163;864870;-56
2022/06/08 04:11:46;;;;;;;3.41;2.09;;;;;;;;;;324032;163;864567;-60
2022/06/08 04:12:47;;;;;;;3.21;2.05;;;;;;;;;;325093;163;857479;-58
2022/06/08 04:13:49;;;;;;;5.88;2.11;;;;;;;;;;326895;162;859209;-57
2022/06/08 04:14:51;;;;;;;7.76;2.19;;;;;;;;;;323339;163;859726;-56
2022/06/08 04:15:52;;;;;;;5.38;2.12;;;;;;;;;;326698;163;859946;-57
2022/06/08 04:16:55;;;;;;;6.91;2.07;;;;;;;;;;324328;162;857233;-56
2022/06/08 04:17:57;;;;;;;5.75;2.09;;;;;;;;;;325679;163;857498;-56
2022/06/08 04:18:58;;;;;;;5.03;2.06;;;;;;;;;;324156;163;863759;-55
2022/06/08 04:20:00;;;;;;;2.14;1.86;;;;;;;;;;324713;163;859131;-57
2022/06/08 04:21:02;;;;;;;2.93;2.04;;;;;;;;;;324127;163;860408;-57
2022/06/08 04:22:04;;;;;;;9.21;2.21;;;;;;;;;;324537;163;857084;-56
2022/06/08 04:23:06;;;;;;;2.88;1.91;;;;;;;;;;324628;163;859371;-57
2022/06/08 04:24:08;;;;;;;5.29;1.88;;;;;;;;;;322785;163;866787;-56
2022/06/08 04:25:09;;;;;;;4.93;1.86;;;;;;;;;;321510;163;863774;-54
2022/06/08 04:26:11;;;;;;;2.04;1.82;;;;;;;;;;323712;163;857925;-56
2022/06/08 04:27:13;;;;;;;3.61;1.80;;;;;;;;;;323198;163;859081;-58
2022/06/08 04:28:14;;;;;;;3.06;1.84;;;;;;;;;;321743;163;857273;-59
2022/06/08 04:29:16;;;;;;;6.99;1.96;;;;;;;;;;323357;163;859502;-58
2022/06/08 04:30:19;;;;;;;8.13;1.72;;;;;;;;;;323655;163;866410;-58
2022/06/08 04:31:20;;;;;;;3.56;1.49;;;;;;;;;;323383;163;857339;-57
2022/06/08 04:32:22;;;;;;;3.54;1.59;;;;;;;;;;324970;163;864904;-57
2022/06/08 04:33:24;;;;;;;3.56;1.41;;;;;;;;;;324690;162;858910;-56
2022/06/08 04:34:25;;;;;;;7.13;1.57;;;;;;;;;;329220;159;864822;-57
2022/06/08 04:35:27;;;;;;;3.39;1.86;;;;;;;;;;333406;159;860041;-57
2022/06/08 04:36:29;;;;;;;5.95;1.97;;;;;;;;;;329931;160;866766;-57
2022/06/08 04:37:31;;;;;;;4.21;1.66;;;;;;;;;;331208;159;857381;-57
2022/06/08 04:38:33;;;;;;;2.63;1.69;;;;;;;;;;330500;160;864818;-58
2022/06/08 04:39:34;;;;;;;2.53;1.61;;;;;;;;;;331639;159;859198;-56
2022/06/08 04:40:36;;;;;;;3.81;1.54;;;;;;;;;;329930;158;858940;-55
2022/06/08 04:41:38;;;;;;;2.99;1.49;;;;;;;;;;330012;159;864661;-58
2022/06/08 04:42:40;;;;;;;4.73;1.66;;;;;;;;;;328522;159;858355;-54
2022/06/08 04:43:41;;;;;;;4.17;1.55;;;;;;;;;;331567;159;864886;-56
2022/06/08 04:44:43;;;;;;;6.70;1.56;;;;;;;;;;329855;159;858222;-56
2022/06/08 04:45:45;;;;;;;4.84;1.81;;;;;;;;;;328840;159;867053;-58
2022/06/08 04:46:47;;;;;;;5.77;2.09;;;;;;;;;;331922;159;859670;-57
2022/06/08 04:47:48;;;;;;;2.81;1.69;;;;;;;;;;330152;160;859052;-59
2022/06/08 04:48:50;;;;;;;3.94;1.61;;;;;;;;;;331421;159;864631;-56
2022/06/08 04:49:51;;;;;;;3.62;1.67;;;;;;;;;;331715;159;857477;-58
2022/06/08 04:50:54;;;;;;;5.29;1.71;;;;;;;;;;330826;159;858975;-59
2022/06/08 04:51:57;;;;;;;7.66;1.54;;;;;;;;;;330195;160;861377;-59
2022/06/08 04:52:59;;;;;;;8.14;1.94;;;;;;;;;;338471;156;857361;-55
2022/06/08 04:54:01;;;;;;;9.84;1.91;;;;;;;;;;335647;156;859558;-59
2022/06/08 04:55:03;;;;;;;8.61;1.86;;;;;;;;;;337381;156;865049;-56
2022/06/08 04:56:04;;;;;;;8.91;1.75;;;;;;;;;;337725;156;865883;-58
2022/06/08 04:57:06;;;;;;;7.70;1.90;;;;;;;;;;339833;156;858031;-60
2022/06/08 04:58:08;;;;;;;4.44;1.61;;;;;;;;;;338261;157;863932;-57
2022/06/08 04:59:10;;;;;;;3.48;1.85;;;;;;;;;;337949;156;863986;-57
2022/06/08 05:00:13;;;;;;;3.51;1.79;;;;;;;;;;340380;156;863895;-56
2022/06/08 05:01:15;;;;;;;6.33;1.64;;;;;;;;;;340047;156;857402;-56
2022/06/08 05:02:42;;;;;;;2.76;1.40;;;;;;;;;;338640;156;857457;-56
2022/06/08 05:03:20;;;;;;;6.62;1.80;;;;;;;;;;336570;156;866262;-55
2022/06/08 05:04:22;;;;;;;8.73;1.93;;;;;;;;;;339960;156;857674;-55
2022/06/08 05:05:24;;;;;;;6.09;1.83;;;;;;;;;;338821;157;865350;-55
2022/06/08 05:06:27;;;;;;;5.56;2.01;;;;;;;;;;337251;156;857181;-54
2022/06/08 05:07:28;;;;;;;3.26;1.78;;;;;;;;;;336041;156;857397;-55
2022/06/08 05:08:30;;;;;;;4.00;2.18;;;;;;;;;;337991;156;859581;-53
2022/06/08 05:09:32;;;;;;;4.00;2.40;;;;;;;;;;338547;156;865964;-53
2022/06/08 05:10:35;;;;;;;4.71;2.67;;;;;;;;;;332959;159;866138;-53
2022/06/08 05:11:38;;;;;;;5.59;2.22;;;;;;;;;;333559;156;858512;-54
2022/06/08 05:12:40;;;;;;;5.45;2.75;;;;;;;;;;339486;156;857119;-53
2022/06/08 05:13:41;;;;;;;4.56;3.01;;;;;;;;;;339043;156;857343;-54
2022/06/08 05:14:43;;;;;;;5.55;3.25;;;;;;;;;;338240;157;864241;-55
2022/06/08 05:15:45;;;;;;;4.17;2.81;;;;;;;;;;337401;156;863718;-53
2022/06/08 05:16:46;;;;;;;10.14;3.04;;;;;;;;;;332657;159;856642;-55
2022/06/08 05:17:48;;;;;;;5.79;3.72;;;;;;;;;;332238;160;857364;-55
2022/06/08 05:18:49;;;;;;;6.47;3.50;;;;;;;;;;338044;156;857521;-55
2022/06/08 05:19:51;;;;;;;4.47;2.91;;;;;;;;;;337799;156;857276;-55
2022/06/08 05:20:54;;;;;;;4.49;3.01;;;;;;;;;;338342;156;864915;-56
2022/06/08 05:21:55;;;;;;;6.27;2.86;;;;;;;;;;339239;156;859143;-55
2022/06/08 05:22:57;;;;;;;4.21;2.55;;;;;;;;;;336913;156;857485;-54
2022/06/08 05:23:58;;;;;;;5.59;2.75;;;;;;;;;;338996;156;858759;-55
2022/06/08 05:25:00;;;;;;;3.56;2.41;;;;;;;;;;336965;156;864927;-54
2022/06/08 05:26:02;;;;;;;2.92;1.77;;;;;;;;;;339100;156;857452;-54
2022/06/08 05:27:05;;;;;;;4.19;1.90;;;;;;;;;;337831;156;858490;-56
2022/06/08 05:28:06;;;;;;;4.38;1.45;;;;;;;;;;338510;156;864995;-54
2022/06/08 05:29:08;;;;;;;2.31;1.42;;;;;;;;;;339988;156;856604;-56
2022/06/08 05:30:11;;;;;;;4.34;1.48;;;;;;;;;;337877;156;865899;-54
2022/06/08 05:31:13;;;;;;;3.63;2.28;;;;;;;;;;336883;153;856056;-55
2022/06/08 05:32:14;;;;;;;2.79;1.73;;;;;;;;;;337654;156;864177;-55
2022/06/08 05:33:16;;;;;;;3.70;1.56;;;;;;;;;;335743;156;857233;-56
2022/06/08 05:34:18;;;;;;;2.47;1.49;;;;;;;;;;335754;156;858924;-55
2022/06/08 05:35:20;;;;;;;2.06;1.34;;;;;;;;;;337469;156;858087;-55
2022/06/08 05:36:22;;;;;;;2.64;1.34;;;;;;;;;;336609;156;864956;-55
2022/06/08 05:37:24;;;;;;;4.86;1.57;;;;;;;;;;339999;156;857419;-55
2022/06/08 05:38:25;;;;;;;5.11;1.39;;;;;;;;;;335630;156;860029;-53
2022/06/08 05:39:27;;;;;;;2.63;1.26;;;;;;;;;;337548;156;865416;-55
2022/06/08 05:40:32;;;;;;;6.26;1.61;;;;;;;;;;337050;156;857233;-54
2022/06/08 05:41:32;;;;;;;3.49;1.45;;;;;;;;;;336838;156;864757;-55
2022/06/08 05:42:34;;;;;;;1.54;0.85;;;;;;;;;;337653;156;866035;-56
2022/06/08 05:43:36;;;;;;;2.13;1.24;;;;;;;;;;339876;156;857409;-60
2022/06/08 05:44:37;;;;;;;2.60;1.15;;;;;;;;;;338497;156;859193;-59
2022/06/08 05:45:40;;;;;;;3.74;1.41;;;;;;;;;;337086;156;858294;-57
2022/06/08 05:46:41;;;;;;;2.62;1.49;;;;;;;;;;335355;156;857823;-58
2022/06/08 05:47:43;;;;;;;3.53;1.33;;;;;;;;;;337366;156;857851;-56
2022/06/08 05:48:45;;;;;;;1.72;1.23;;;;;;;;;;340456;156;865678;-58
2022/06/08 05:49:47;;;;;;;2.41;1.88;;;;;;;;;;337032;157;859198;-58
2022/06/08 05:50:49;;;;;;;3.24;1.59;;;;;;;;;;335843;156;859071;-58
2022/06/08 05:51:51;;;;;;;2.75;1.28;;;;;;;;;;336929;156;859064;-58
2022/06/08 05:52:52;;;;;;;2.55;1.89;;;;;;;;;;335688;156;859109;-55
2022/06/08 05:53:54;;;;;;;11.71;1.81;;;;;;;;;;333242;156;859287;-53
2022/06/08 05:54:56;;;;;;;5.87;1.27;;;;;;;;;;337113;156;858972;-55
2022/06/08 05:55:58;;;;;;;2.49;1.41;;;;;;;;;;337248;156;859267;-57
2022/06/08 05:57:00;;;;;;;5.75;1.35;;;;;;;;;;338291;156;858575;-57
2022/06/08 05:58:01;;;;;;;2.44;1.15;;;;;;;;;;339757;156;859056;-56
2022/06/08 05:59:08;;;;;;;2.13;1.24;;;;;;;;;;338106;154;859127;-56
2022/06/08 06:00:09;;;;;;;4.77;1.18;;;;;;;;;;339733;156;857527;-57
2022/06/08 06:01:10;;;;;;;2.07;1.26;;;;;;;;;;337823;156;857173;-56
2022/06/08 06:02:12;;;;;;;4.76;1.31;;;;;;;;;;336374;156;865735;-54
2022/06/08 06:03:14;;;;;;;3.63;1.31;;;;;;;;;;336091;156;857413;-58